sensor_id;sensor_type;location;lat;lon;timestamp;P1;durP1;ratioP1;P2;durP2;ratioP2
71166;SDS011;58864;45.928;20.078;2024-01-10T00:01:29;73.38;;;26.67;;
71166;SDS011;58864;45.928;20.078;2024-01-10T00:03:54;66.07;;;25.20;;
71166;SDS011;58864;45.928;20.078;2024-01-10T00:06:18;73.20;;;25.45;;
71166;SDS011;58864;45.928;20.078;2024-01-10T00:08:43;67.10;;;22.93;;
71166;SDS011;58864;45.928;20.078;2024-01-10T00:11:07;61.17;;;23.17;;
71166;SDS011;58864;45.928;20.078;2024-01-10T00:13:32;53.85;;;20.13;;
71166;SDS011;58864;45.928;20.078;2024-01-10T00:15:57;56.27;;;19.87;;
71166;SDS011;58864;45.928;20.078;2024-01-10T00:18:22;52.83;;;19.38;;
71166;SDS011;58864;45.928;20.078;2024-01-10T00:20:47;47.63;;;19.20;;
71166;SDS011;58864;45.928;20.078;2024-01-10T00:23:11;45.80;;;17.47;;
71166;SDS011;58864;45.928;20.078;2024-01-10T00:25:36;57.73;;;18.83;;
71166;SDS011;58864;45.928;20.078;2024-01-10T00:28:00;53.80;;;18.63;;
71166;SDS011;58864;45.928;20.078;2024-01-10T00:30:25;42.80;;;16.90;;
71166;SDS011;58864;45.928;20.078;2024-01-10T00:32:50;46.00;;;16.83;;
71166;SDS011;58864;45.928;20.078;2024-01-10T00:35:14;47.77;;;19.03;;
71166;SDS011;58864;45.928;20.078;2024-01-10T00:37:39;46.72;;;19.00;;
71166;SDS011;58864;45.928;20.078;2024-01-10T00:40:03;51.53;;;19.07;;
71166;SDS011;58864;45.928;20.078;2024-01-10T00:42:28;74.95;;;27.13;;
71166;SDS011;58864;45.928;20.078;2024-01-10T00:44:53;97.67;;;32.57;;
71166;SDS011;58864;45.928;20.078;2024-01-10T00:47:17;99.83;;;30.33;;
71166;SDS011;58864;45.928;20.078;2024-01-10T00:49:41;78.77;;;28.50;;
71166;SDS011;58864;45.928;20.078;2024-01-10T00:52:06;71.40;;;24.57;;
71166;SDS011;58864;45.928;20.078;2024-01-10T00:54:30;75.83;;;25.60;;
71166;SDS011;58864;45.928;20.078;2024-01-10T00:56:55;64.30;;;22.88;;
71166;SDS011;58864;45.928;20.078;2024-01-10T00:59:19;56.43;;;21.00;;
71166;SDS011;58864;45.928;20.078;2024-01-10T01:01:44;56.40;;;19.07;;
71166;SDS011;58864;45.928;20.078;2024-01-10T01:04:08;52.30;;;18.47;;
71166;SDS011;58864;45.928;20.078;2024-01-10T01:06:33;51.40;;;18.15;;
71166;SDS011;58864;45.928;20.078;2024-01-10T01:08:57;42.87;;;16.17;;
71166;SDS011;58864;45.928;20.078;2024-01-10T01:11:22;44.55;;;16.30;;
71166;SDS011;58864;45.928;20.078;2024-01-10T01:13:47;41.90;;;14.53;;
71166;SDS011;58864;45.928;20.078;2024-01-10T01:16:12;41.25;;;14.50;;
71166;SDS011;58864;45.928;20.078;2024-01-10T01:18:36;41.33;;;14.40;;
71166;SDS011;58864;45.928;20.078;2024-01-10T01:21:01;40.13;;;14.60;;
71166;SDS011;58864;45.928;20.078;2024-01-10T01:23:26;41.90;;;15.43;;
71166;SDS011;58864;45.928;20.078;2024-01-10T01:25:50;40.08;;;14.60;;
71166;SDS011;58864;45.928;20.078;2024-01-10T01:28:15;47.87;;;17.97;;
71166;SDS011;58864;45.928;20.078;2024-01-10T01:30:39;45.07;;;17.43;;
71166;SDS011;58864;45.928;20.078;2024-01-10T01:33:04;46.40;;;19.27;;
71166;SDS011;58864;45.928;20.078;2024-01-10T01:35:29;38.53;;;15.53;;
71166;SDS011;58864;45.928;20.078;2024-01-10T01:37:53;44.17;;;16.65;;
71166;SDS011;58864;45.928;20.078;2024-01-10T01:40:18;44.37;;;17.57;;
71166;SDS011;58864;45.928;20.078;2024-01-10T01:42:43;46.13;;;16.67;;
71166;SDS011;58864;45.928;20.078;2024-01-10T01:45:09;44.87;;;15.77;;
71166;SDS011;58864;45.928;20.078;2024-01-10T01:47:33;41.88;;;16.67;;
71166;SDS011;58864;45.928;20.078;2024-01-10T01:49:58;68.93;;;23.50;;
71166;SDS011;58864;45.928;20.078;2024-01-10T01:52:23;53.50;;;19.90;;
71166;SDS011;58864;45.928;20.078;2024-01-10T01:54:47;54.67;;;18.88;;
71166;SDS011;58864;45.928;20.078;2024-01-10T01:57:12;43.83;;;17.10;;
71166;SDS011;58864;45.928;20.078;2024-01-10T01:59:37;54.83;;;17.33;;
71166;SDS011;58864;45.928;20.078;2024-01-10T02:02:01;47.87;;;17.70;;
71166;SDS011;58864;45.928;20.078;2024-01-10T02:04:27;52.00;;;18.33;;
71166;SDS011;58864;45.928;20.078;2024-01-10T02:06:52;52.92;;;19.13;;
71166;SDS011;58864;45.928;20.078;2024-01-10T02:09:17;53.80;;;21.47;;
71166;SDS011;58864;45.928;20.078;2024-01-10T02:11:42;61.00;;;21.75;;
71166;SDS011;58864;45.928;20.078;2024-01-10T02:14:09;58.37;;;21.07;;
71166;SDS011;58864;45.928;20.078;2024-01-10T02:16:37;58.58;;;19.92;;
71166;SDS011;58864;45.928;20.078;2024-01-10T02:22:04;58.80;;;21.60;;
71166;SDS011;58864;45.928;20.078;2024-01-10T02:24:32;65.27;;;23.97;;
71166;SDS011;58864;45.928;20.078;2024-01-10T02:27:02;57.97;;;21.75;;
71166;SDS011;58864;45.928;20.078;2024-01-10T02:29:30;71.15;;;22.42;;
71166;SDS011;58864;45.928;20.078;2024-01-10T02:32:01;64.03;;;21.52;;
71166;SDS011;58864;45.928;20.078;2024-01-10T02:34:34;69.00;;;22.65;;
71166;SDS011;58864;45.928;20.078;2024-01-10T02:37:07;66.37;;;23.10;;
71166;SDS011;58864;45.928;20.078;2024-01-10T02:39:35;61.90;;;21.85;;
71166;SDS011;58864;45.928;20.078;2024-01-10T02:42:22;57.38;;;21.23;;
71166;SDS011;58864;45.928;20.078;2024-01-10T02:44:53;56.78;;;19.23;;
71166;SDS011;58864;45.928;20.078;2024-01-10T02:47:23;52.10;;;18.98;;
71166;SDS011;58864;45.928;20.078;2024-01-10T02:50:04;54.20;;;19.07;;
71166;SDS011;58864;45.928;20.078;2024-01-10T02:52:31;53.65;;;17.52;;
71166;SDS011;58864;45.928;20.078;2024-01-10T02:54:56;61.20;;;22.00;;
71166;SDS011;58864;45.928;20.078;2024-01-10T02:57:28;75.72;;;26.80;;
71166;SDS011;58864;45.928;20.078;2024-01-10T03:00:07;78.25;;;26.67;;
71166;SDS011;58864;45.928;20.078;2024-01-10T03:02:35;76.37;;;25.60;;
71166;SDS011;58864;45.928;20.078;2024-01-10T03:04:59;66.80;;;23.17;;
71166;SDS011;58864;45.928;20.078;2024-01-10T03:07:24;83.33;;;27.20;;
71166;SDS011;58864;45.928;20.078;2024-01-10T03:09:48;85.30;;;27.40;;
71166;SDS011;58864;45.928;20.078;2024-01-10T03:12:13;74.47;;;25.17;;
71166;SDS011;58864;45.928;20.078;2024-01-10T03:14:37;65.80;;;21.93;;
71166;SDS011;58864;45.928;20.078;2024-01-10T03:17:02;56.30;;;20.57;;
71166;SDS011;58864;45.928;20.078;2024-01-10T03:19:26;60.33;;;20.77;;
71166;SDS011;58864;45.928;20.078;2024-01-10T03:21:51;56.87;;;19.37;;
71166;SDS011;58864;45.928;20.078;2024-01-10T03:24:15;57.93;;;19.00;;
71166;SDS011;58864;45.928;20.078;2024-01-10T03:26:40;52.75;;;18.83;;
71166;SDS011;58864;45.928;20.078;2024-01-10T03:29:04;60.57;;;18.47;;
71166;SDS011;58864;45.928;20.078;2024-01-10T03:31:29;106.60;;;33.00;;
71166;SDS011;58864;45.928;20.078;2024-01-10T03:33:54;116.22;;;34.85;;
71166;SDS011;58864;45.928;20.078;2024-01-10T03:36:19;95.20;;;29.73;;
71166;SDS011;58864;45.928;20.078;2024-01-10T03:38:43;102.55;;;29.70;;
71166;SDS011;58864;45.928;20.078;2024-01-10T03:41:12;92.97;;;28.03;;
71166;SDS011;58864;45.928;20.078;2024-01-10T03:43:40;81.22;;;25.38;;
71166;SDS011;58864;45.928;20.078;2024-01-10T03:46:08;78.03;;;24.75;;
71166;SDS011;58864;45.928;20.078;2024-01-10T03:48:33;71.43;;;23.83;;
71166;SDS011;58864;45.928;20.078;2024-01-10T03:50:58;67.07;;;21.63;;
71166;SDS011;58864;45.928;20.078;2024-01-10T03:53:22;64.60;;;21.20;;
71166;SDS011;58864;45.928;20.078;2024-01-10T03:55:47;67.23;;;21.80;;
71166;SDS011;58864;45.928;20.078;2024-01-10T03:58:11;62.60;;;20.83;;
71166;SDS011;58864;45.928;20.078;2024-01-10T04:00:36;63.80;;;21.77;;
71166;SDS011;58864;45.928;20.078;2024-01-10T04:03:00;64.38;;;22.00;;
71166;SDS011;58864;45.928;20.078;2024-01-10T04:05:24;69.40;;;21.37;;
71166;SDS011;58864;45.928;20.078;2024-01-10T04:07:49;70.40;;;21.77;;
71166;SDS011;58864;45.928;20.078;2024-01-10T04:10:13;66.63;;;20.33;;
71166;SDS011;58864;45.928;20.078;2024-01-10T04:12:38;57.67;;;19.27;;
71166;SDS011;58864;45.928;20.078;2024-01-10T04:15:03;58.07;;;19.37;;
71166;SDS011;58864;45.928;20.078;2024-01-10T04:17:28;53.80;;;19.50;;
71166;SDS011;58864;45.928;20.078;2024-01-10T04:19:52;52.93;;;17.23;;
71166;SDS011;58864;45.928;20.078;2024-01-10T04:22:17;54.37;;;18.50;;
71166;SDS011;58864;45.928;20.078;2024-01-10T04:24:41;65.25;;;20.50;;
71166;SDS011;58864;45.928;20.078;2024-01-10T04:27:06;68.47;;;21.97;;
71166;SDS011;58864;45.928;20.078;2024-01-10T04:29:30;74.93;;;24.27;;
71166;SDS011;58864;45.928;20.078;2024-01-10T04:31:54;69.47;;;22.98;;
71166;SDS011;58864;45.928;20.078;2024-01-10T04:34:19;86.67;;;25.33;;
71166;SDS011;58864;45.928;20.078;2024-01-10T04:36:43;98.40;;;31.90;;
71166;SDS011;58864;45.928;20.078;2024-01-10T04:39:08;97.10;;;29.08;;
71166;SDS011;58864;45.928;20.078;2024-01-10T04:47:52;69.68;;;21.08;;
71166;SDS011;58864;45.928;20.078;2024-01-10T04:50:22;69.80;;;21.40;;
71166;SDS011;58864;45.928;20.078;2024-01-10T04:52:47;66.53;;;20.60;;
71166;SDS011;58864;45.928;20.078;2024-01-10T04:55:15;62.67;;;20.48;;
71166;SDS011;58864;45.928;20.078;2024-01-10T04:57:39;67.82;;;22.45;;
71166;SDS011;58864;45.928;20.078;2024-01-10T05:00:14;59.40;;;19.37;;
71166;SDS011;58864;45.928;20.078;2024-01-10T05:02:41;62.17;;;20.50;;
71166;SDS011;58864;45.928;20.078;2024-01-10T05:05:15;61.08;;;19.98;;
71166;SDS011;58864;45.928;20.078;2024-01-10T05:07:47;56.80;;;19.40;;
71166;SDS011;58864;45.928;20.078;2024-01-10T05:10:25;54.72;;;18.67;;
71166;SDS011;58864;45.928;20.078;2024-01-10T05:12:56;59.17;;;17.87;;
71166;SDS011;58864;45.928;20.078;2024-01-10T05:15:20;48.45;;;16.80;;
71166;SDS011;58864;45.928;20.078;2024-01-10T05:17:47;46.78;;;16.05;;
71166;SDS011;58864;45.928;20.078;2024-01-10T05:20:12;45.90;;;16.83;;
71166;SDS011;58864;45.928;20.078;2024-01-10T05:22:37;48.80;;;19.15;;
71166;SDS011;58864;45.928;20.078;2024-01-10T05:25:02;65.80;;;22.73;;
71166;SDS011;58864;45.928;20.078;2024-01-10T05:27:27;62.28;;;22.50;;
71166;SDS011;58864;45.928;20.078;2024-01-10T05:29:52;49.73;;;17.67;;
71166;SDS011;58864;45.928;20.078;2024-01-10T05:32:16;55.60;;;20.38;;
71166;SDS011;58864;45.928;20.078;2024-01-10T05:34:41;68.40;;;25.20;;
71166;SDS011;58864;45.928;20.078;2024-01-10T05:37:05;62.27;;;23.70;;
71166;SDS011;58864;45.928;20.078;2024-01-10T05:39:30;56.00;;;20.98;;
71166;SDS011;58864;45.928;20.078;2024-01-10T05:41:57;74.37;;;25.00;;
71166;SDS011;58864;45.928;20.078;2024-01-10T05:44:22;58.70;;;21.65;;
71166;SDS011;58864;45.928;20.078;2024-01-10T05:46:46;60.53;;;22.17;;
71166;SDS011;58864;45.928;20.078;2024-01-10T05:49:11;56.63;;;21.45;;
71166;SDS011;58864;45.928;20.078;2024-01-10T05:51:38;58.40;;;19.90;;
71166;SDS011;58864;45.928;20.078;2024-01-10T05:54:03;49.07;;;18.33;;
71166;SDS011;58864;45.928;20.078;2024-01-10T05:56:28;45.67;;;18.17;;
71166;SDS011;58864;45.928;20.078;2024-01-10T05:58:52;46.57;;;17.60;;
71166;SDS011;58864;45.928;20.078;2024-01-10T06:01:17;51.08;;;16.90;;
71166;SDS011;58864;45.928;20.078;2024-01-10T06:03:41;47.20;;;15.90;;
71166;SDS011;58864;45.928;20.078;2024-01-10T06:06:06;50.33;;;18.40;;
71166;SDS011;58864;45.928;20.078;2024-01-10T06:08:30;53.03;;;20.55;;
71166;SDS011;58864;45.928;20.078;2024-01-10T06:10:58;83.40;;;31.83;;
71166;SDS011;58864;45.928;20.078;2024-01-10T06:13:23;70.72;;;27.55;;
71166;SDS011;58864;45.928;20.078;2024-01-10T06:15:49;75.07;;;27.93;;
71166;SDS011;58864;45.928;20.078;2024-01-10T06:18:14;76.15;;;25.48;;
71166;SDS011;58864;45.928;20.078;2024-01-10T06:20:38;69.33;;;25.50;;
71166;SDS011;58864;45.928;20.078;2024-01-10T06:23:03;104.17;;;35.83;;
71166;SDS011;58864;45.928;20.078;2024-01-10T06:25:30;107.05;;;38.70;;
71166;SDS011;58864;45.928;20.078;2024-01-10T06:27:55;88.43;;;31.15;;
71166;SDS011;58864;45.928;20.078;2024-01-10T06:30:19;82.63;;;29.10;;
71166;SDS011;58864;45.928;20.078;2024-01-10T06:32:49;78.72;;;27.42;;
71166;SDS011;58864;45.928;20.078;2024-01-10T06:35:16;71.10;;;26.07;;
71166;SDS011;58864;45.928;20.078;2024-01-10T06:37:40;98.47;;;31.98;;
71166;SDS011;58864;45.928;20.078;2024-01-10T06:40:08;97.93;;;33.10;;
71166;SDS011;58864;45.928;20.078;2024-01-10T06:42:33;132.70;;;43.25;;
71166;SDS011;58864;45.928;20.078;2024-01-10T06:45:02;141.25;;;43.33;;
71166;SDS011;58864;45.928;20.078;2024-01-10T06:47:27;144.98;;;46.05;;
71166;SDS011;58864;45.928;20.078;2024-01-10T06:49:52;144.57;;;45.10;;
71166;SDS011;58864;45.928;20.078;2024-01-10T06:52:16;125.67;;;42.20;;
71166;SDS011;58864;45.928;20.078;2024-01-10T06:54:41;132.67;;;44.60;;
71166;SDS011;58864;45.928;20.078;2024-01-10T06:57:14;128.70;;;43.00;;
71166;SDS011;58864;45.928;20.078;2024-01-10T06:59:43;116.87;;;39.27;;
71166;SDS011;58864;45.928;20.078;2024-01-10T07:02:10;128.90;;;45.47;;
71166;SDS011;58864;45.928;20.078;2024-01-10T07:04:41;178.20;;;55.25;;
71166;SDS011;58864;45.928;20.078;2024-01-10T07:07:06;230.80;;;66.77;;
71166;SDS011;58864;45.928;20.078;2024-01-10T07:09:32;180.18;;;55.83;;
71166;SDS011;58864;45.928;20.078;2024-01-10T07:11:57;163.33;;;50.97;;
71166;SDS011;58864;45.928;20.078;2024-01-10T07:14:21;169.85;;;49.90;;
71166;SDS011;58864;45.928;20.078;2024-01-10T07:16:45;156.10;;;46.90;;
71166;SDS011;58864;45.928;20.078;2024-01-10T07:19:11;154.27;;;48.00;;
71166;SDS011;58864;45.928;20.078;2024-01-10T07:21:42;135.90;;;39.78;;
71166;SDS011;58864;45.928;20.078;2024-01-10T07:24:07;112.17;;;37.83;;
71166;SDS011;58864;45.928;20.078;2024-01-10T07:26:36;107.65;;;36.42;;
71166;SDS011;58864;45.928;20.078;2024-01-10T07:29:00;111.15;;;35.78;;
71166;SDS011;58864;45.928;20.078;2024-01-10T07:31:26;109.55;;;33.75;;
71166;SDS011;58864;45.928;20.078;2024-01-10T07:33:52;117.40;;;35.88;;
71166;SDS011;58864;45.928;20.078;2024-01-10T07:36:19;105.17;;;32.87;;
71166;SDS011;58864;45.928;20.078;2024-01-10T07:38:43;97.18;;;29.63;;
71166;SDS011;58864;45.928;20.078;2024-01-10T07:41:07;86.33;;;28.23;;
71166;SDS011;58864;45.928;20.078;2024-01-10T07:43:32;95.80;;;32.33;;
71166;SDS011;58864;45.928;20.078;2024-01-10T07:56:25;94.45;;;31.80;;
71166;SDS011;58864;45.928;20.078;2024-01-10T07:58:50;98.57;;;31.50;;
71166;SDS011;58864;45.928;20.078;2024-01-10T08:01:15;70.50;;;28.10;;
71166;SDS011;58864;45.928;20.078;2024-01-10T08:03:58;72.75;;;25.70;;
71166;SDS011;58864;45.928;20.078;2024-01-10T08:06:37;64.75;;;24.33;;
71166;SDS011;58864;45.928;20.078;2024-01-10T08:09:04;68.85;;;23.55;;
71166;SDS011;58864;45.928;20.078;2024-01-10T08:11:30;77.80;;;27.48;;
71166;SDS011;58864;45.928;20.078;2024-01-10T08:13:58;76.03;;;26.47;;
71166;SDS011;58864;45.928;20.078;2024-01-10T08:16:30;63.47;;;23.17;;
71166;SDS011;58864;45.928;20.078;2024-01-10T08:18:56;62.38;;;21.50;;
71166;SDS011;58864;45.928;20.078;2024-01-10T08:21:21;63.67;;;21.53;;
71166;SDS011;58864;45.928;20.078;2024-01-10T08:23:45;75.20;;;22.87;;
71166;SDS011;58864;45.928;20.078;2024-01-10T08:26:09;55.40;;;21.38;;
71166;SDS011;58864;45.928;20.078;2024-01-10T08:28:34;53.37;;;19.10;;
71166;SDS011;58864;45.928;20.078;2024-01-10T08:30:58;53.57;;;18.63;;
71166;SDS011;58864;45.928;20.078;2024-01-10T08:33:23;49.22;;;18.60;;
71166;SDS011;58864;45.928;20.078;2024-01-10T08:39:06;45.38;;;16.17;;
71166;SDS011;58864;45.928;20.078;2024-01-10T08:41:58;47.13;;;16.48;;
71166;SDS011;58864;45.928;20.078;2024-01-10T08:44:23;46.60;;;17.23;;
71166;SDS011;58864;45.928;20.078;2024-01-10T08:46:47;38.17;;;15.10;;
71166;SDS011;58864;45.928;20.078;2024-01-10T08:49:15;34.10;;;13.85;;
71166;SDS011;58864;45.928;20.078;2024-01-10T08:51:39;37.70;;;13.47;;
71166;SDS011;58864;45.928;20.078;2024-01-10T08:54:13;42.53;;;15.00;;
71166;SDS011;58864;45.928;20.078;2024-01-10T08:59:30;59.35;;;21.90;;
71166;SDS011;58864;45.928;20.078;2024-01-10T09:02:21;69.78;;;22.83;;
71166;SDS011;58864;45.928;20.078;2024-01-10T09:04:47;66.00;;;21.17;;
71166;SDS011;58864;45.928;20.078;2024-01-10T09:07:11;53.70;;;20.48;;
71166;SDS011;58864;45.928;20.078;2024-01-10T09:09:36;48.40;;;18.50;;
71166;SDS011;58864;45.928;20.078;2024-01-10T09:12:00;54.63;;;18.73;;
71166;SDS011;58864;45.928;20.078;2024-01-10T09:14:25;49.25;;;18.13;;
71166;SDS011;58864;45.928;20.078;2024-01-10T09:16:49;75.73;;;25.10;;
71166;SDS011;58864;45.928;20.078;2024-01-10T09:19:14;57.87;;;21.10;;
71166;SDS011;58864;45.928;20.078;2024-01-10T09:21:38;43.90;;;16.92;;
71166;SDS011;58864;45.928;20.078;2024-01-10T09:24:03;46.00;;;17.43;;
71166;SDS011;58864;45.928;20.078;2024-01-10T09:26:29;59.47;;;18.42;;
71166;SDS011;58864;45.928;20.078;2024-01-10T09:28:53;71.07;;;21.90;;
71166;SDS011;58864;45.928;20.078;2024-01-10T09:31:18;60.13;;;20.33;;
71166;SDS011;58864;45.928;20.078;2024-01-10T09:33:42;42.77;;;17.33;;
71166;SDS011;58864;45.928;20.078;2024-01-10T09:36:07;42.47;;;15.18;;
71166;SDS011;58864;45.928;20.078;2024-01-10T09:38:40;44.93;;;15.60;;
71166;SDS011;58864;45.928;20.078;2024-01-10T09:41:05;50.08;;;18.27;;
71166;SDS011;58864;45.928;20.078;2024-01-10T09:43:30;50.60;;;18.63;;
71166;SDS011;58864;45.928;20.078;2024-01-10T09:45:54;46.08;;;17.88;;
71166;SDS011;58864;45.928;20.078;2024-01-10T09:48:21;39.70;;;15.98;;
71166;SDS011;58864;45.928;20.078;2024-01-10T09:50:46;52.43;;;17.50;;
71166;SDS011;58864;45.928;20.078;2024-01-10T09:53:17;55.25;;;19.13;;
71166;SDS011;58864;45.928;20.078;2024-01-10T09:55:48;55.00;;;18.70;;
71166;SDS011;58864;45.928;20.078;2024-01-10T09:58:12;44.07;;;17.47;;
71166;SDS011;58864;45.928;20.078;2024-01-10T10:00:36;46.28;;;18.25;;
71166;SDS011;58864;45.928;20.078;2024-01-10T10:03:02;43.17;;;16.20;;
71166;SDS011;58864;45.928;20.078;2024-01-10T10:05:28;43.35;;;17.15;;
71166;SDS011;58864;45.928;20.078;2024-01-10T10:07:53;41.87;;;15.60;;
71166;SDS011;58864;45.928;20.078;2024-01-10T10:10:17;39.35;;;15.15;;
71166;SDS011;58864;45.928;20.078;2024-01-10T10:12:43;36.63;;;14.10;;
71166;SDS011;58864;45.928;20.078;2024-01-10T10:15:10;37.47;;;14.25;;
71166;SDS011;58864;45.928;20.078;2024-01-10T10:17:35;48.13;;;19.92;;
71166;SDS011;58864;45.928;20.078;2024-01-10T10:20:02;38.97;;;16.30;;
71166;SDS011;58864;45.928;20.078;2024-01-10T10:22:28;39.92;;;15.63;;
71166;SDS011;58864;45.928;20.078;2024-01-10T10:24:52;44.47;;;17.93;;
71166;SDS011;58864;45.928;20.078;2024-01-10T10:27:17;44.73;;;17.07;;
71166;SDS011;58864;45.928;20.078;2024-01-10T10:29:41;47.00;;;16.80;;
71166;SDS011;58864;45.928;20.078;2024-01-10T10:32:06;37.45;;;14.85;;
71166;SDS011;58864;45.928;20.078;2024-01-10T10:34:32;35.40;;;14.23;;
71166;SDS011;58864;45.928;20.078;2024-01-10T10:36:56;36.72;;;15.10;;
71166;SDS011;58864;45.928;20.078;2024-01-10T10:39:21;36.37;;;14.57;;
71166;SDS011;58864;45.928;20.078;2024-01-10T10:41:46;39.67;;;15.60;;
71166;SDS011;58864;45.928;20.078;2024-01-10T10:44:12;39.47;;;14.40;;
71166;SDS011;58864;45.928;20.078;2024-01-10T10:46:40;43.30;;;16.38;;
71166;SDS011;58864;45.928;20.078;2024-01-10T10:49:09;63.80;;;20.60;;
71166;SDS011;58864;45.928;20.078;2024-01-10T10:51:36;54.43;;;18.43;;
71166;SDS011;58864;45.928;20.078;2024-01-10T10:54:00;57.10;;;20.42;;
71166;SDS011;58864;45.928;20.078;2024-01-10T10:56:31;47.80;;;18.40;;
71166;SDS011;58864;45.928;20.078;2024-01-10T10:58:57;53.85;;;20.33;;
71166;SDS011;58864;45.928;20.078;2024-01-10T11:01:23;51.83;;;18.90;;
71166;SDS011;58864;45.928;20.078;2024-01-10T11:03:48;55.17;;;20.05;;
71166;SDS011;58864;45.928;20.078;2024-01-10T11:06:12;51.78;;;20.88;;
71166;SDS011;58864;45.928;20.078;2024-01-10T11:08:38;50.63;;;18.80;;
71166;SDS011;58864;45.928;20.078;2024-01-10T11:11:14;53.30;;;19.23;;
71166;SDS011;58864;45.928;20.078;2024-01-10T11:14:06;54.85;;;20.65;;
71166;SDS011;58864;45.928;20.078;2024-01-10T11:19:52;61.85;;;23.08;;
71166;SDS011;58864;45.928;20.078;2024-01-10T11:25:25;60.75;;;21.42;;
71166;SDS011;58864;45.928;20.078;2024-01-10T11:27:53;51.90;;;20.15;;
71166;SDS011;58864;45.928;20.078;2024-01-10T11:30:30;53.67;;;22.00;;
71166;SDS011;58864;45.928;20.078;2024-01-10T11:32:57;66.00;;;22.77;;
71166;SDS011;58864;45.928;20.078;2024-01-10T11:35:25;61.83;;;23.25;;
71166;SDS011;58864;45.928;20.078;2024-01-10T11:37:49;56.47;;;22.57;;
71166;SDS011;58864;45.928;20.078;2024-01-10T11:40:15;68.20;;;23.17;;
71166;SDS011;58864;45.928;20.078;2024-01-10T11:43:08;61.55;;;22.63;;
71166;SDS011;58864;45.928;20.078;2024-01-10T11:45:37;61.13;;;22.58;;
71166;SDS011;58864;45.928;20.078;2024-01-10T11:48:01;72.80;;;25.33;;
71166;SDS011;58864;45.928;20.078;2024-01-10T11:50:26;62.53;;;24.13;;
71166;SDS011;58864;45.928;20.078;2024-01-10T11:52:54;55.38;;;22.38;;
71166;SDS011;58864;45.928;20.078;2024-01-10T11:56:02;61.50;;;23.33;;
71166;SDS011;58864;45.928;20.078;2024-01-10T12:01:50;56.08;;;23.35;;
71166;SDS011;58864;45.928;20.078;2024-01-10T12:04:14;56.67;;;22.20;;
71166;SDS011;58864;45.928;20.078;2024-01-10T12:06:41;66.10;;;24.63;;
71166;SDS011;58864;45.928;20.078;2024-01-10T12:09:06;60.30;;;24.57;;
71166;SDS011;58864;45.928;20.078;2024-01-10T12:11:33;66.07;;;26.90;;
71166;SDS011;58864;45.928;20.078;2024-01-10T12:14:02;79.68;;;33.28;;
71166;SDS011;58864;45.928;20.078;2024-01-10T12:16:26;72.00;;;30.27;;
71166;SDS011;58864;45.928;20.078;2024-01-10T12:18:51;69.07;;;28.83;;
71166;SDS011;58864;45.928;20.078;2024-01-10T12:21:16;64.97;;;26.92;;
71166;SDS011;58864;45.928;20.078;2024-01-10T12:23:41;64.75;;;27.10;;
71166;SDS011;58864;45.928;20.078;2024-01-10T12:26:07;72.63;;;29.37;;
71166;SDS011;58864;45.928;20.078;2024-01-10T12:28:34;71.55;;;29.27;;
71166;SDS011;58864;45.928;20.078;2024-01-10T12:30:59;69.53;;;27.73;;
71166;SDS011;58864;45.928;20.078;2024-01-10T12:33:24;75.03;;;29.77;;
71166;SDS011;58864;45.928;20.078;2024-01-10T12:36:04;67.13;;;28.42;;
71166;SDS011;58864;45.928;20.078;2024-01-10T12:38:33;62.17;;;24.23;;
71166;SDS011;58864;45.928;20.078;2024-01-10T12:40:58;56.38;;;22.40;;
71166;SDS011;58864;45.928;20.078;2024-01-10T12:43:22;60.23;;;25.00;;
71166;SDS011;58864;45.928;20.078;2024-01-10T12:45:47;64.28;;;25.10;;
71166;SDS011;58864;45.928;20.078;2024-01-10T12:48:14;67.80;;;27.37;;
71166;SDS011;58864;45.928;20.078;2024-01-10T12:50:41;70.95;;;28.63;;
71166;SDS011;58864;45.928;20.078;2024-01-10T12:53:06;79.47;;;31.53;;
71166;SDS011;58864;45.928;20.078;2024-01-10T12:55:31;71.93;;;29.30;;
71166;SDS011;58864;45.928;20.078;2024-01-10T12:57:55;66.47;;;27.95;;
71166;SDS011;58864;45.928;20.078;2024-01-10T13:00:23;67.47;;;26.77;;
71166;SDS011;58864;45.928;20.078;2024-01-10T13:02:49;70.63;;;27.92;;
71166;SDS011;58864;45.928;20.078;2024-01-10T13:05:14;73.70;;;28.88;;
71166;SDS011;58864;45.928;20.078;2024-01-10T13:07:39;72.45;;;29.00;;
71166;SDS011;58864;45.928;20.078;2024-01-10T13:10:03;74.60;;;29.90;;
71166;SDS011;58864;45.928;20.078;2024-01-10T13:12:28;69.33;;;28.00;;
71166;SDS011;58864;45.928;20.078;2024-01-10T13:14:52;65.35;;;26.08;;
71166;SDS011;58864;45.928;20.078;2024-01-10T13:17:17;61.40;;;24.80;;
71166;SDS011;58864;45.928;20.078;2024-01-10T13:19:41;57.53;;;24.13;;
71166;SDS011;58864;45.928;20.078;2024-01-10T13:22:12;63.60;;;25.42;;
71166;SDS011;58864;45.928;20.078;2024-01-10T13:24:37;60.95;;;25.02;;
71166;SDS011;58864;45.928;20.078;2024-01-10T13:27:02;64.40;;;25.97;;
71166;SDS011;58864;45.928;20.078;2024-01-10T13:29:26;72.88;;;27.20;;
71166;SDS011;58864;45.928;20.078;2024-01-10T13:31:51;79.03;;;28.40;;
71166;SDS011;58864;45.928;20.078;2024-01-10T13:34:16;70.87;;;27.47;;
71166;SDS011;58864;45.928;20.078;2024-01-10T13:36:40;72.57;;;26.60;;
71166;SDS011;58864;45.928;20.078;2024-01-10T13:39:05;62.07;;;23.03;;
71166;SDS011;58864;45.928;20.078;2024-01-10T13:41:31;57.55;;;22.25;;
71166;SDS011;58864;45.928;20.078;2024-01-10T13:43:55;54.43;;;20.33;;
71166;SDS011;58864;45.928;20.078;2024-01-10T13:46:19;48.25;;;20.05;;
71166;SDS011;58864;45.928;20.078;2024-01-10T13:48:44;44.07;;;17.33;;
71166;SDS011;58864;45.928;20.078;2024-01-10T13:51:08;46.10;;;18.87;;
71166;SDS011;58864;45.928;20.078;2024-01-10T13:53:33;47.03;;;18.83;;
71166;SDS011;58864;45.928;20.078;2024-01-10T13:55:58;48.57;;;19.33;;
71166;SDS011;58864;45.928;20.078;2024-01-10T13:58:22;50.58;;;21.42;;
71166;SDS011;58864;45.928;20.078;2024-01-10T14:00:47;53.67;;;20.20;;
71166;SDS011;58864;45.928;20.078;2024-01-10T14:03:12;49.47;;;20.17;;
71166;SDS011;58864;45.928;20.078;2024-01-10T14:05:36;52.83;;;19.53;;
71166;SDS011;58864;45.928;20.078;2024-01-10T14:08:01;48.90;;;19.17;;
71166;SDS011;58864;45.928;20.078;2024-01-10T14:10:25;42.27;;;17.27;;
71166;SDS011;58864;45.928;20.078;2024-01-10T14:12:49;41.30;;;17.37;;
71166;SDS011;58864;45.928;20.078;2024-01-10T14:15:14;44.80;;;16.83;;
71166;SDS011;58864;45.928;20.078;2024-01-10T14:17:38;44.07;;;17.67;;
71166;SDS011;58864;45.928;20.078;2024-01-10T14:20:04;52.67;;;18.48;;
71166;SDS011;58864;45.928;20.078;2024-01-10T14:22:32;49.88;;;17.42;;
71166;SDS011;58864;45.928;20.078;2024-01-10T14:24:57;44.10;;;17.60;;
71166;SDS011;58864;45.928;20.078;2024-01-10T14:27:22;49.13;;;20.65;;
71166;SDS011;58864;45.928;20.078;2024-01-10T14:29:46;50.53;;;18.97;;
71166;SDS011;58864;45.928;20.078;2024-01-10T14:32:12;58.10;;;21.67;;
71166;SDS011;58864;45.928;20.078;2024-01-10T14:34:38;50.07;;;19.43;;
71166;SDS011;58864;45.928;20.078;2024-01-10T14:37:03;63.80;;;23.33;;
71166;SDS011;58864;45.928;20.078;2024-01-10T14:39:28;79.80;;;29.38;;